Time;durP1;ratioP1;P1;durP2;ratioP2;P2;SDS_P1;SDS_P2;PMS_P1;PMS_P2;Temp;Humidity;BMP_temperature;BMP_pressure;BME280_temperature;BME280_humidity;BME280_pressure;Samples;Min_cycle;Max_cycle;Signal;HPM_P1;HPM_P2
2021/01/01 00:02:42;;;;;;;21.58;14.80;;;2.10;99.90;;;;;;12200321;28;20047;-41
2021/01/01 00:09:12;;;;;;;20.35;13.77;;;2.10;99.90;;;;;;12241170;28;20059;-42
2021/01/01 00:15:14;;;;;;;24.73;16.88;;;2.10;99.90;;;;;;12248097;28;20055;-43
2021/01/01 00:21:19;;;;;;;24.38;16.52;;;2.10;99.90;;;;;;12250622;28;20067;-42
2021/01/01 00:27:27;;;;;;;23.42;15.23;;;2.10;99.90;;;;;;12240176;28;20408;-43
2021/01/01 00:33:52;;;;;;;26.35;17.95;;;2.10;99.90;;;;;;12262655;28;20217;-42
2021/01/01 00:39:57;;;;;;;25.58;17.58;;;2.10;99.90;;;;;;12266920;28;20047;-46
2021/01/01 00:46:06;;;;;;;24.77;17.10;;;2.10;99.90;;;;;;12293688;28;21214;-43
2021/01/01 00:52:13;;;;;;;22.80;16.40;;;2.30;99.90;;;;;;12310708;28;20126;-42
2021/01/01 00:58:29;;;;;;;23.98;16.77;;;2.40;99.90;;;;;;12296248;28;20142;-43
2021/01/01 01:04:36;;;;;;;28.67;18.95;;;2.40;99.90;;;;;;12309182;28;20478;-42
2021/01/01 01:10:48;;;;;;;28.52;18.58;;;2.30;99.90;;;;;;12289889;28;20078;-43
2021/01/01 01:17:01;;;;;;;30.30;19.75;;;2.20;99.90;;;;;;12269033;28;20085;-42
2021/01/01 01:23:14;;;;;;;30.95;21.48;;;2.20;99.90;;;;;;12272158;28;20047;-43
2021/01/01 01:29:31;;;;;;;29.48;18.88;;;2.10;99.90;;;;;;12284731;28;20086;-42
2021/01/01 01:35:42;;;;;;;33.85;20.65;;;2.10;99.90;;;;;;12276005;28;20039;-42
2021/01/01 01:41:47;;;;;;;44.80;25.23;;;2.00;99.90;;;;;;12282201;28;20070;-42
2021/01/01 01:47:53;;;;;;;40.50;25.43;;;2.00;99.90;;;;;;12285820;28;20411;-43
2021/01/01 01:54:03;;;;;;;40.88;25.80;;;2.00;99.90;;;;;;12275235;28;20133;-43
2021/01/01 02:06:47;;;;;;;38.55;24.10;;;1.90;99.90;;;;;;12244939;28;20086;-42
2021/01/01 02:13:11;;;;;;;40.47;25.27;;;1.80;99.90;;;;;;12252611;28;20055;-43
2021/01/01 02:19:24;;;;;;;38.47;24.40;;;1.90;99.90;;;;;;12251382;28;20453;-42
2021/01/01 02:25:37;;;;;;;38.78;23.85;;;2.10;99.90;;;;;;12265705;28;20082;-41
2021/01/01 02:31:56;;;;;;;42.78;26.02;;;2.10;99.90;;;;;;12248798;28;20135;-42
2021/01/01 02:38:07;;;;;;;39.40;24.48;;;2.10;99.90;;;;;;12220328;28;20055;-41
2021/01/01 02:44:12;;;;;;;41.63;25.52;;;1.90;99.90;;;;;;12236455;28;20141;-41
2021/01/01 02:50:38;;;;;;;44.78;26.15;;;2.00;99.90;;;;;;12228912;28;20583;-41
2021/01/01 02:56:52;;;;;;;48.20;28.40;;;1.80;99.90;;;;;;12250755;29;20062;-43
2021/01/01 03:02:54;;;;;;;45.35;27.33;;;1.70;99.90;;;;;;12247980;28;20071;-42
2021/01/01 03:09:00;;;;;;;51.67;28.98;;;1.60;99.90;;;;;;12247330;28;20582;-42
2021/01/01 03:15:17;;;;;;;53.17;29.25;;;1.60;99.90;;;;;;12241663;28;20047;-42
2021/01/01 03:21:28;;;;;;;59.13;30.85;;;1.50;99.90;;;;;;12253777;28;20100;-42
2021/01/01 03:27:47;;;;;;;57.53;32.13;;;1.60;99.90;;;;;;12264608;28;20145;-42
2021/01/01 03:33:54;;;;;;;62.00;33.25;;;1.60;99.90;;;;;;12270636;28;20414;-42
2021/01/01 03:40:07;;;;;;;68.00;34.15;;;1.60;99.90;;;;;;12277826;28;20051;-42
2021/01/01 03:46:12;;;;;;;70.63;33.83;;;1.60;99.90;;;;;;12266839;28;20059;-42
2021/01/01 03:52:14;;;;;;;75.47;36.57;;;1.60;99.90;;;;;;12300520;28;20485;-44
2021/01/01 03:58:46;;;;;;;70.03;33.88;;;1.60;99.90;;;;;;12294690;28;20074;-42
2021/01/01 04:04:56;;;;;;;71.45;35.53;;;1.60;99.90;;;;;;12309079;28;20486;-42
2021/01/01 04:11:01;;;;;;;68.97;32.15;;;1.70;99.90;;;;;;12266456;28;20383;-44
2021/01/01 04:17:20;;;;;;;72.10;34.97;;;1.70;99.90;;;;;;12250634;28;20135;-43
2021/01/01 04:23:28;;;;;;;65.60;32.50;;;1.80;99.90;;;;;;12264131;28;20561;-42
2021/01/01 04:29:35;;;;;;;59.60;29.13;;;1.80;99.90;;;;;;12222836;28;20059;-42
2021/01/01 04:36:09;;;;;;;59.05;29.23;;;1.80;99.90;;;;;;12301501;28;20096;-41
2021/01/01 04:42:32;;;;;;;59.83;30.13;;;1.70;99.90;;;;;;12277689;28;20138;-41
2021/01/01 04:48:37;;;;;;;62.28;31.45;;;1.60;99.90;;;;;;12251241;28;20066;-42
2021/01/01 04:55:00;;;;;;;58.65;28.77;;;1.50;99.90;;;;;;12251105;28;20129;-43
2021/01/01 05:01:04;;;;;;;57.38;29.67;;;1.30;99.90;;;;;;12239028;28;20127;-42
2021/01/01 05:07:27;;;;;;;67.90;32.35;;;1.20;99.90;;;;;;12259056;28;20062;-42
2021/01/01 05:13:34;;;;;;;78.50;34.92;;;1.10;99.90;;;;;;12240042;28;20054;-42
2021/01/01 05:20:06;;;;;;;80.10;35.92;;;1.10;99.90;;;;;;12233661;29;20166;-43
2021/01/01 05:26:30;;;;;;;81.72;37.75;;;1.00;99.90;;;;;;12254644;28;20051;-43
2021/01/01 05:32:36;;;;;;;79.80;36.70;;;0.90;99.90;;;;;;12251448;28;20176;-42
2021/01/01 05:38:38;;;;;;;74.30;34.60;;;0.90;99.90;;;;;;12248883;28;20086;-42
2021/01/01 05:44:42;;;;;;;70.07;34.22;;;0.80;99.90;;;;;;12262464;28;20192;-43
2021/01/01 05:51:04;;;;;;;82.53;34.78;;;0.80;99.90;;;;;;12258854;28;20539;-42
2021/01/01 05:57:20;;;;;;;72.35;33.13;;;0.80;99.90;;;;;;12262990;28;20096;-42
2021/01/01 06:03:32;;;;;;;77.33;34.07;;;0.80;99.90;;;;;;12268238;28;20131;-42
2021/01/01 06:09:45;;;;;;;73.65;33.88;;;0.70;99.90;;;;;;12291354;28;20137;-43
2021/01/01 06:16:15;;;;;;;71.10;33.25;;;0.70;99.90;;;;;;12243493;28;20154;-43
2021/01/01 06:23:08;;;;;;;77.25;34.88;;;0.70;99.90;;;;;;12249988;28;20054;-44
2021/01/01 06:29:38;;;;;;;70.50;33.35;;;0.70;99.90;;;;;;12233299;28;20083;-42
2021/01/01 06:35:45;;;;;;;67.78;32.03;;;0.70;99.90;;;;;;12219202;28;20479;-42
2021/01/01 06:42:14;;;;;;;68.45;31.65;;;0.60;99.90;;;;;;12226105;28;20426;-42
2021/01/01 06:48:40;;;;;;;75.25;33.25;;;0.50;99.90;;;;;;12220539;28;20058;-42
2021/01/01 06:55:14;;;;;;;73.35;32.92;;;0.50;99.90;;;;;;12232162;28;20075;-41
2021/01/01 07:01:38;;;;;;;75.63;32.83;;;0.50;99.90;;;;;;12224811;28;20507;-43
2021/01/01 07:07:51;;;;;;;64.75;31.63;;;0.50;99.90;;;;;;12226814;28;20169;-42
2021/01/01 07:14:05;;;;;;;71.07;31.90;;;0.50;99.90;;;;;;12225301;28;20117;-41
2021/01/01 07:20:19;;;;;;;66.35;28.70;;;0.60;99.90;;;;;;12237433;28;20086;-41
2021/01/01 07:26:27;;;;;;;65.65;28.92;;;0.60;99.90;;;;;;12223119;28;20603;-42
2021/01/01 07:32:47;;;;;;;58.10;27.95;;;0.60;99.90;;;;;;12238310;28;20575;-42
2021/01/01 07:38:51;;;;;;;52.25;26.92;;;0.70;99.90;;;;;;12239084;28;20066;-42
2021/01/01 07:45:15;;;;;;;56.50;28.45;;;0.80;99.90;;;;;;12245706;28;20116;-41
2021/01/01 07:51:25;;;;;;;59.65;29.65;;;0.80;99.90;;;;;;12242195;28;20054;-42
2021/01/01 07:57:50;;;;;;;52.85;26.58;;;0.80;99.90;;;;;;12247123;28;20404;-41
2021/01/01 08:03:58;;;;;;;49.40;25.25;;;0.90;99.90;;;;;;12248299;28;20141;-42
2021/01/01 08:10:09;;;;;;;57.78;27.55;;;1.00;99.90;;;;;;12250523;28;20149;-42
2021/01/01 08:16:35;;;;;;;55.60;26.23;;;1.10;99.90;;;;;;12236736;28;20358;-43
2021/01/01 08:22:54;;;;;;;51.90;26.20;;;1.20;99.90;;;;;;12263893;28;20524;-42
2021/01/01 08:29:09;;;;;;;61.75;27.45;;;1.20;99.90;;;;;;12240351;28;20521;-43
2021/01/01 08:35:32;;;;;;;50.97;25.98;;;1.30;99.90;;;;;;12266876;28;20074;-41
2021/01/01 08:42:02;;;;;;;47.42;23.95;;;1.30;99.90;;;;;;12226585;28;20209;-41
2021/01/01 08:48:18;;;;;;;41.73;23.17;;;1.30;99.90;;;;;;12234358;28;22034;-42
2021/01/01 08:54:41;;;;;;;41.70;21.58;;;1.40;99.90;;;;;;12241120;28;20865;-41
2021/01/01 09:00:54;;;;;;;37.45;20.83;;;1.50;99.90;;;;;;12249878;28;20783;-45
2021/01/01 09:07:03;;;;;;;39.30;21.40;;;1.60;99.90;;;;;;12243893;28;20500;-41
2021/01/01 09:13:33;;;;;;;32.33;18.70;;;1.60;99.90;;;;;;12225460;28;20175;-41
2021/01/01 09:19:46;;;;;;;34.67;19.08;;;1.70;99.90;;;;;;12252452;28;20424;-43
2021/01/01 09:25:57;;;;;;;34.90;19.50;;;1.70;99.90;;;;;;12309552;28;20055;-42
2021/01/01 09:32:05;;;;;;;36.03;20.00;;;1.80;99.90;;;;;;12271695;28;20106;-43
2021/01/01 09:38:16;;;;;;;36.50;19.17;;;1.90;99.90;;;;;;12249814;28;20233;-42
2021/01/01 09:44:26;;;;;;;40.10;21.38;;;2.00;99.90;;;;;;12233822;28;20129;-45
2021/01/01 09:50:56;;;;;;;38.20;19.73;;;2.20;99.90;;;;;;12231537;28;20097;-42
2021/01/01 09:57:03;;;;;;;36.90;20.47;;;2.70;99.90;;;;;;12280995;28;20190;-42
2021/01/01 10:03:22;;;;;;;37.30;19.95;;;2.70;99.90;;;;;;12280282;28;20138;-43
2021/01/01 10:09:38;;;;;;;40.55;20.27;;;2.70;99.90;;;;;;12285829;28;20049;-43
2021/01/01 10:15:57;;;;;;;41.67;22.85;;;2.50;99.90;;;;;;12302013;28;20138;-46
2021/01/01 10:22:22;;;;;;;41.83;22.73;;;2.50;99.90;;;;;;12281026;28;20165;-42
2021/01/01 10:28:32;;;;;;;42.50;22.80;;;2.60;99.90;;;;;;12274957;28;20082;-43
2021/01/01 10:34:41;;;;;;;46.45;23.38;;;2.50;99.90;;;;;;12306193;28;20484;-44
2021/01/01 10:40:57;;;;;;;47.58;25.70;;;2.60;99.90;;;;;;12271622;28;20438;-42
2021/01/01 10:47:04;;;;;;;53.47;26.67;;;2.60;99.90;;;;;;12262137;28;20136;-42
2021/01/01 10:53:11;;;;;;;47.05;25.58;;;2.70;99.90;;;;;;12282042;28;20129;-42
2021/01/01 10:59:24;;;;;;;57.47;28.42;;;2.80;99.90;;;;;;12282677;28;20603;-43
2021/01/01 11:05:37;;;;;;;52.17;27.35;;;2.90;99.90;;;;;;12271200;28;20516;-42
2021/01/01 11:11:55;;;;;;;49.50;26.27;;;2.90;99.90;;;;;;12271290;28;20308;-43
2021/01/01 12:31:21;;;;;;;29.10;15.40;;;3.40;99.90;;;;;;12302907;28;20066;-42
2021/01/01 12:37:47;;;;;;;27.90;15.05;;;3.50;99.90;;;;;;12315172;28;20141;-42
2021/01/01 12:44:04;;;;;;;29.98;14.40;;;3.50;99.90;;;;;;12266990;28;20142;-43
2021/01/01 12:50:35;;;;;;;28.45;14.80;;;3.50;99.90;;;;;;12254277;28;20083;-42
2021/01/01 12:56:43;;;;;;;26.65;13.88;;;3.70;99.90;;;;;;12249284;28;20197;-41
2021/01/01 13:03:09;;;;;;;25.58;12.88;;;3.60;99.90;;;;;;12229882;28;20138;-42
2021/01/01 13:09:26;;;;;;;24.20;12.55;;;3.50;99.90;;;;;;12256242;28;20514;-42
2021/01/01 13:15:52;;;;;;;27.08;13.27;;;3.60;99.90;;;;;;12261284;28;20054;-41
2021/01/01 13:22:03;;;;;;;21.15;11.57;;;3.60;99.90;;;;;;12241137;28;20055;-42
2021/01/01 13:28:07;;;;;;;24.88;13.10;;;3.70;99.90;;;;;;12260639;28;20556;-42
2021/01/01 13:34:21;;;;;;;25.25;12.95;;;3.80;99.90;;;;;;12255325;28;20090;-43
2021/01/01 13:40:37;;;;;;;23.50;13.68;;;4.20;99.90;;;;;;12239754;28;20055;-42
2021/01/01 13:46:41;;;;;;;29.35;14.90;;;4.00;99.90;;;;;;12237738;28;20058;-41
2021/01/01 13:53:07;;;;;;;29.80;16.55;;;3.80;99.90;;;;;;12231967;28;20039;-42
2021/01/01 13:59:40;;;;;;;30.42;16.17;;;3.50;99.90;;;;;;12256223;28;20487;-43
2021/01/01 14:05:56;;;;;;;31.98;16.60;;;3.40;99.90;;;;;;12194039;28;20051;-42
2021/01/01 14:12:09;;;;;;;36.10;18.45;;;3.60;99.90;;;;;;12221490;28;20051;-43
2021/01/01 14:18:40;;;;;;;33.10;19.38;;;3.60;99.90;;;;;;12262426;28;20043;-41
2021/01/01 14:25:02;;;;;;;33.53;19.20;;;3.40;99.90;;;;;;12230209;28;20200;-41
2021/01/01 14:31:25;;;;;;;39.05;20.02;;;3.40;99.90;;;;;;12229904;28;20082;-41
2021/01/01 14:37:53;;;;;;;37.55;21.20;;;3.20;99.90;;;;;;12252749;28;20418;-41
2021/01/01 14:44:19;;;;;;;42.10;21.73;;;3.10;99.90;;;;;;12230896;28;20511;-42
2021/01/01 14:50:32;;;;;;;42.88;22.42;;;3.10;99.90;;;;;;12216060;28;20051;-42
2021/01/01 14:56:43;;;;;;;44.92;23.48;;;3.10;99.90;;;;;;12232782;28;20590;-42
2021/01/01 15:03:16;;;;;;;42.05;23.13;;;3.00;99.90;;;;;;12208998;28;20218;-42
2021/01/01 15:09:26;;;;;;;43.38;22.55;;;3.00;99.90;;;;;;12238995;29;20086;-42
2021/01/01 15:15:48;;;;;;;45.78;23.35;;;2.90;99.90;;;;;;12247027;28;20154;-42
2021/01/01 15:22:27;;;;;;;46.00;23.15;;;2.90;99.90;;;;;;12238977;28;20089;-42
2021/01/01 15:28:45;;;;;;;48.10;24.40;;;2.90;99.90;;;;;;12223756;28;20154;-42
2021/01/01 15:34:58;;;;;;;44.20;23.67;;;2.90;99.90;;;;;;12261240;28;20134;-41
2021/01/01 15:41:06;;;;;;;46.55;23.42;;;2.90;99.90;;;;;;12254057;28;20093;-41
2021/01/01 15:47:35;;;;;;;56.15;25.30;;;2.80;99.90;;;;;;12290774;28;20692;-43
2021/01/01 15:54:01;;;;;;;55.85;25.35;;;2.80;99.90;;;;;;12289417;28;20150;-42
2021/01/01 16:00:10;;;;;;;52.38;25.25;;;2.80;99.90;;;;;;12288057;28;20090;-41
2021/01/01 16:06:23;;;;;;;55.72;26.48;;;2.80;99.90;;;;;;12291357;28;20054;-42
2021/01/01 16:12:32;;;;;;;47.28;24.15;;;2.80;99.90;;;;;;12318688;28;20141;-42
2021/01/01 16:18:49;;;;;;;50.60;25.05;;;2.80;99.90;;;;;;12313487;28;20039;-42
2021/01/01 16:25:05;;;;;;;50.22;24.58;;;2.90;99.90;;;;;;12245139;28;22017;-44
2021/01/01 16:31:15;;;;;;;45.15;23.52;;;2.80;99.90;;;;;;12258757;28;20146;-42
2021/01/01 16:37:33;;;;;;;51.60;24.65;;;2.90;99.90;;;;;;12241361;28;20043;-43
2021/01/01 16:43:38;;;;;;;46.20;22.73;;;2.80;99.90;;;;;;12205819;28;20041;-43
2021/01/01 16:49:48;;;;;;;47.63;23.30;;;2.90;99.90;;;;;;12243765;28;20094;-42
2021/01/01 16:56:03;;;;;;;52.35;24.60;;;2.90;99.90;;;;;;12233903;28;20147;-42
2021/01/01 17:02:10;;;;;;;54.53;24.90;;;2.80;99.90;;;;;;12230673;28;20139;-42
2021/01/01 17:08:43;;;;;;;53.30;23.95;;;2.80;99.90;;;;;;12240274;28;20113;-42
2021/01/01 17:14:50;;;;;;;49.33;22.80;;;2.90;99.90;;;;;;12283968;28;20780;-42
2021/01/01 17:21:10;;;;;;;51.70;24.17;;;2.90;99.90;;;;;;12277878;28;20142;-42
2021/01/01 17:27:38;;;;;;;51.22;24.17;;;2.90;99.90;;;;;;12298310;28;20054;-42
2021/01/01 17:33:39;;;;;;;50.83;24.30;;;2.90;99.90;;;;;;12309148;28;20363;-42
2021/01/01 17:39:49;;;;;;;48.33;22.88;;;2.90;99.90;;;;;;12278682;28;20061;-43
2021/01/01 17:45:59;;;;;;;44.88;24.27;;;2.90;99.90;;;;;;12286487;28;20078;-42
2021/01/01 17:52:24;;;;;;;45.47;23.30;;;2.90;99.90;;;;;;12283953;28;20043;-42
2021/01/01 17:58:30;;;;;;;47.15;24.15;;;2.90;99.90;;;;;;12296598;28;20043;-41
2021/01/01 18:04:44;;;;;;;45.25;23.35;;;2.80;99.90;;;;;;12303730;28;20066;-42
2021/01/01 18:10:49;;;;;;;55.03;24.42;;;2.80;99.90;;;;;;12297237;28;20475;-42
2021/01/01 18:17:02;;;;;;;49.03;25.98;;;2.80;99.90;;;;;;12291988;28;20188;-42
2021/01/01 18:23:34;;;;;;;55.08;27.35;;;2.80;99.90;;;;;;12287664;28;20047;-43
2021/01/01 18:29:55;;;;;;;56.25;25.58;;;2.80;99.90;;;;;;12280608;28;20101;-42
2021/01/01 18:36:02;;;;;;;56.13;27.15;;;2.90;99.90;;;;;;12300616;28;20078;-42
2021/01/01 18:42:19;;;;;;;52.17;26.20;;;2.90;99.90;;;;;;12287171;28;20546;-42
2021/01/01 18:48:46;;;;;;;57.28;26.45;;;3.00;99.90;;;;;;12295904;28;20485;-42
2021/01/01 18:55:06;;;;;;;53.95;26.48;;;3.00;99.90;;;;;;12294682;28;20706;-42
2021/01/01 19:01:21;;;;;;;46.78;25.40;;;3.10;99.90;;;;;;12296955;28;20587;-41
2021/01/01 19:07:51;;;;;;;51.95;25.73;;;3.10;99.90;;;;;;12293923;28;20280;-42
2021/01/01 19:14:26;;;;;;;50.67;25.05;;;3.10;99.90;;;;;;12280714;28;20458;-42
2021/01/01 19:20:59;;;;;;;48.30;24.15;;;3.10;99.90;;;;;;12295216;28;20046;-42
2021/01/01 19:35:18;;;;;;;54.42;25.80;;;3.10;99.90;;;;;;12295297;28;20054;-41
2021/01/01 19:41:54;;;;;;;49.45;24.85;;;3.10;99.90;;;;;;12290736;28;20455;-42
2021/01/01 19:48:37;;;;;;;50.65;25.92;;;3.00;99.90;;;;;;12301680;28;20061;-42
2021/01/01 19:55:04;;;;;;;52.60;26.13;;;3.00;99.90;;;;;;12293223;28;20067;-41
2021/01/01 20:01:37;;;;;;;51.75;25.98;;;3.00;99.90;;;;;;12266830;28;20105;-42
2021/01/01 20:07:57;;;;;;;56.08;26.92;;;3.00;99.90;;;;;;12271268;28;20133;-42
2021/01/01 20:14:13;;;;;;;50.20;25.60;;;3.00;99.90;;;;;;12262489;28;20083;-42
2021/01/01 20:20:30;;;;;;;50.28;25.48;;;3.10;99.90;;;;;;12237864;28;20133;-42
2021/01/01 20:26:53;;;;;;;50.75;24.65;;;3.10;99.90;;;;;;12241303;28;20062;-43
2021/01/01 20:33:08;;;;;;;54.88;25.17;;;3.00;99.90;;;;;;12249800;28;20078;-42
2021/01/01 20:40:13;;;;;;;48.92;25.02;;;3.00;99.90;;;;;;12240114;28;20055;-41
2021/01/01 20:54:59;;;;;;;54.17;26.17;;;3.00;99.90;;;;;;12282345;28;20063;-42
2021/01/01 21:00:13;;;;;;;59.13;26.45;;;2.90;99.90;;;;;;12237507;28;20153;-42
2021/01/01 21:07:19;;;;;;;58.85;26.58;;;2.90;99.90;;;;;;12252503;28;20062;-41
2021/01/01 21:14:01;;;;;;;56.08;25.88;;;2.80;99.90;;;;;;12197995;28;20207;-42
2021/01/01 21:20:52;;;;;;;55.28;27.60;;;2.90;99.90;;;;;;12222173;28;20078;-42
2021/01/01 21:27:53;;;;;;;59.95;27.58;;;2.90;99.90;;;;;;12208238;28;20126;-42
2021/01/01 21:34:24;;;;;;;59.67;28.55;;;2.90;99.90;;;;;;12195457;28;20086;-42
2021/01/01 21:41:03;;;;;;;59.22;27.33;;;2.80;99.90;;;;;;12251108;28;20415;-44
2021/01/01 21:47:38;;;;;;;60.58;29.20;;;2.80;99.90;;;;;;12256560;28;20074;-42
2021/01/01 21:53:46;;;;;;;59.33;28.75;;;2.90;99.90;;;;;;12254316;28;20055;-41
2021/01/01 21:59:48;;;;;;;67.13;31.42;;;2.80;99.90;;;;;;12236051;28;20106;-43
2021/01/01 22:06:29;;;;;;;65.07;29.35;;;2.80;99.90;;;;;;12292697;28;20142;-42
2021/01/01 22:12:55;;;;;;;62.20;29.50;;;2.80;99.90;;;;;;12289420;28;20522;-42
2021/01/01 22:18:59;;;;;;;60.55;30.10;;;2.70;99.90;;;;;;12313087;28;20087;-42
2021/01/01 22:25:01;;;;;;;66.78;31.45;;;2.70;99.90;;;;;;12273397;28;20512;-43
2021/01/01 22:31:17;;;;;;;61.80;29.85;;;2.70;99.90;;;;;;12308134;28;20060;-42
2021/01/01 22:37:39;;;;;;;66.82;31.15;;;2.80;99.90;;;;;;12299837;28;20443;-42
2021/01/01 22:43:49;;;;;;;58.30;29.43;;;2.80;99.90;;;;;;12269521;28;20047;-42
2021/01/01 22:50:20;;;;;;;70.82;31.42;;;2.80;99.90;;;;;;12132906;29;20059;-41
2021/01/01 22:56:30;;;;;;;71.22;31.98;;;2.70;99.90;;;;;;12162003;29;20048;-41
2021/01/01 23:02:50;;;;;;;67.35;31.90;;;2.60;99.90;;;;;;12156889;29;20067;-42
2021/01/01 23:09:03;;;;;;;66.30;31.23;;;2.60;99.90;;;;;;12139690;29;20497;-42
2021/01/01 23:15:20;;;;;;;68.15;31.60;;;2.50;99.90;;;;;;12159928;29;20134;-42
2021/01/01 23:21:53;;;;;;;66.32;32.15;;;2.60;99.90;;;;;;12170685;28;20166;-41
2021/01/01 23:28:00;;;;;;;67.07;31.58;;;2.70;99.90;;;;;;12264865;28;20046;-41
2021/01/01 23:34:50;;;;;;;69.45;32.58;;;2.70;99.90;;;;;;12291330;28;20079;-42
2021/01/01 23:41:11;;;;;;;65.18;31.38;;;2.70;99.90;;;;;;12291086;28;20054;-43
2021/01/01 23:47:45;;;;;;;69.18;32.45;;;2.70;99.90;;;;;;12281948;28;20134;-41
2021/01/01 23:54:21;;;;;;;69.70;32.58;;;2.80;99.90;;;;;;12266282;28;20218;-42
